Cardigan, Canada
Current Conditions -  °F | °C
As of 2:00 PM on Tuesday 21 Oct 2014 (Local Time) from CYYG Reporting Station
Broken Clouds Broken Clouds  
Wind Chill: 50°   Ceiling: 28000
Heat Index: 50°   Visibility: 15mi
Dew Point: 32°   Wind: 8mph
Humidity: 50%   Direction: 260°W
Pressure: 30.14"   Gusts: NA
Location:  46.23°N, 62.62°W
Report Text: CYYG 211700Z 26007KT 15SM FEW036 BKN280 10/00 A3014 RMK CF1CI5 CF TR SLP208
Loading
Personal Weather Stations






























Interactive Weather Map
Tropical Storm Tracking
New forecast layout! Learn more

10-Day Weather Forecast

Advertisements
Track Severe Weather on mobile